sensor_id;sensor_type;location;lat;lon;timestamp;pressure;altitude;pressure_sealevel;temperature;humidity
49585;BME280;35491;49.142;9.210;2023-03-20T00:00:53;100121.88;;;10.77;78.27
49585;BME280;35491;49.142;9.210;2023-03-20T00:01:57;100127.13;;;10.69;78.42
49585;BME280;35491;49.142;9.210;2023-03-20T00:02:58;100130.25;;;10.55;78.83
49585;BME280;35491;49.142;9.210;2023-03-20T00:04:02;100131.06;;;10.55;79.24
49585;BME280;35491;49.142;9.210;2023-03-20T00:05:10;100128.97;;;10.59;79.32
49585;BME280;35491;49.142;9.210;2023-03-20T00:06:19;100121.66;;;10.61;78.92
49585;BME280;35491;49.142;9.210;2023-03-20T00:07:20;100126.44;;;10.57;79.21
49585;BME280;35491;49.142;9.210;2023-03-20T00:08:24;100131.81;;;10.48;79.65
49585;BME280;35491;49.142;9.210;2023-03-20T00:09:30;100126.75;;;10.44;79.24
49585;BME280;35491;49.142;9.210;2023-03-20T00:10:33;100127.28;;;10.48;79.69
49585;BME280;35491;49.142;9.210;2023-03-20T00:11:40;100130.78;;;10.49;79.60
49585;BME280;35491;49.142;9.210;2023-03-20T00:12:42;100136.84;;;10.51;79.50
49585;BME280;35491;49.142;9.210;2023-03-20T00:13:47;100132.09;;;10.44;79.20
49585;BME280;35491;49.142;9.210;2023-03-20T00:14:48;100125.47;;;10.39;79.67
49585;BME280;35491;49.142;9.210;2023-03-20T00:15:52;100130.53;;;10.42;79.53
49585;BME280;35491;49.142;9.210;2023-03-20T00:16:54;100134.91;;;10.43;79.73
49585;BME280;35491;49.142;9.210;2023-03-20T00:17:58;100138.81;;;10.49;79.34
49585;BME280;35491;49.142;9.210;2023-03-20T00:18:59;100133.63;;;10.47;79.24
49585;BME280;35491;49.142;9.210;2023-03-20T00:20:03;100132.34;;;10.41;79.61
49585;BME280;35491;49.142;9.210;2023-03-20T00:21:07;100131.81;;;10.38;79.61
49585;BME280;35491;49.142;9.210;2023-03-20T00:22:12;100140.69;;;10.38;79.58
49585;BME280;35491;49.142;9.210;2023-03-20T00:23:13;100130.38;;;10.43;79.30
49585;BME280;35491;49.142;9.210;2023-03-20T00:24:17;100136.44;;;10.45;79.24
49585;BME280;35491;49.142;9.210;2023-03-20T00:25:21;100133.06;;;10.43;79.51
49585;BME280;35491;49.142;9.210;2023-03-20T00:26:27;100135.75;;;10.43;79.06
49585;BME280;35491;49.142;9.210;2023-03-20T00:27:30;100141.09;;;10.43;78.61
49585;BME280;35491;49.142;9.210;2023-03-20T00:28:35;100136.88;;;10.41;78.75
49585;BME280;35491;49.142;9.210;2023-03-20T00:29:39;100134.75;;;10.44;78.85
49585;BME280;35491;49.142;9.210;2023-03-20T00:30:43;100139.94;;;10.36;79.01
49585;BME280;35491;49.142;9.210;2023-03-20T00:31:44;100142.50;;;10.48;78.58
49585;BME280;35491;49.142;9.210;2023-03-20T00:32:48;100139.69;;;10.49;78.59
49585;BME280;35491;49.142;9.210;2023-03-20T00:33:50;100145.31;;;10.56;78.43
49585;BME280;35491;49.142;9.210;2023-03-20T00:34:53;100142.31;;;10.59;78.10
49585;BME280;35491;49.142;9.210;2023-03-20T00:35:54;100141.34;;;10.60;77.90
49585;BME280;35491;49.142;9.210;2023-03-20T00:36:58;100149.09;;;10.53;78.01
49585;BME280;35491;49.142;9.210;2023-03-20T00:37:59;100144.75;;;10.52;78.55
49585;BME280;35491;49.142;9.210;2023-03-20T00:39:03;100144.31;;;10.57;78.26
49585;BME280;35491;49.142;9.210;2023-03-20T00:40:05;100149.50;;;10.49;77.90
49585;BME280;35491;49.142;9.210;2023-03-20T00:41:17;100149.22;;;10.52;78.47
49585;BME280;35491;49.142;9.210;2023-03-20T00:42:20;100149.22;;;10.52;78.28
49585;BME280;35491;49.142;9.210;2023-03-20T00:43:24;100143.63;;;10.55;78.03
49585;BME280;35491;49.142;9.210;2023-03-20T00:44:25;100148.69;;;10.58;77.79
49585;BME280;35491;49.142;9.210;2023-03-20T00:45:30;100151.47;;;10.56;78.09
49585;BME280;35491;49.142;9.210;2023-03-20T00:46:34;100152.59;;;10.64;77.89
49585;BME280;35491;49.142;9.210;2023-03-20T00:47:40;100147.53;;;10.70;77.60
49585;BME280;35491;49.142;9.210;2023-03-20T00:48:41;100137.69;;;10.61;77.80
49585;BME280;35491;49.142;9.210;2023-03-20T00:49:46;100141.34;;;10.60;77.36
49585;BME280;35491;49.142;9.210;2023-03-20T00:50:48;100148.09;;;10.64;77.53
49585;BME280;35491;49.142;9.210;2023-03-20T00:51:52;100139.50;;;10.70;77.28
49585;BME280;35491;49.142;9.210;2023-03-20T00:52:53;100142.19;;;10.70;77.04
49585;BME280;35491;49.142;9.210;2023-03-20T00:53:57;100136.81;;;10.70;76.92
49585;BME280;35491;49.142;9.210;2023-03-20T00:54:58;100143.72;;;10.73;76.91
49585;BME280;35491;49.142;9.210;2023-03-20T00:56:02;100142.06;;;10.72;77.03
49585;BME280;35491;49.142;9.210;2023-03-20T00:57:06;100147.41;;;10.72;76.91
49585;BME280;35491;49.142;9.210;2023-03-20T00:58:11;100141.31;;;10.80;76.96
49585;BME280;35491;49.142;9.210;2023-03-20T00:59:13;100142.72;;;10.84;76.83
49585;BME280;35491;49.142;9.210;2023-03-20T01:00:28;100146.81;;;10.78;76.66
49585;BME280;35491;49.142;9.210;2023-03-20T01:01:34;100149.66;;;10.76;76.93
49585;BME280;35491;49.142;9.210;2023-03-20T01:02:35;100146.09;;;10.76;76.85
49585;BME280;35491;49.142;9.210;2023-03-20T01:03:38;100152.47;;;10.65;77.12
49585;BME280;35491;49.142;9.210;2023-03-20T01:04:40;100153.59;;;10.63;77.55
49585;BME280;35491;49.142;9.210;2023-03-20T01:05:44;100149.50;;;10.58;77.75
49585;BME280;35491;49.142;9.210;2023-03-20T01:06:46;100146.28;;;10.55;77.85
49585;BME280;35491;49.142;9.210;2023-03-20T01:07:49;100152.19;;;10.58;77.81
49585;BME280;35491;49.142;9.210;2023-03-20T01:08:50;100148.97;;;10.55;77.81
49585;BME280;35491;49.142;9.210;2023-03-20T01:09:57;100148.09;;;10.54;77.81
49585;BME280;35491;49.142;9.210;2023-03-20T01:10:58;100143.72;;;10.53;77.97
49585;BME280;35491;49.142;9.210;2023-03-20T01:13:18;100155.72;;;10.49;77.78
49585;BME280;35491;49.142;9.210;2023-03-20T01:14:22;100150.38;;;10.49;78.00
49585;BME280;35491;49.142;9.210;2023-03-20T01:15:24;100147.69;;;10.49;78.06
49585;BME280;35491;49.142;9.210;2023-03-20T01:16:30;100147.53;;;10.51;78.00
49585;BME280;35491;49.142;9.210;2023-03-20T01:17:31;100149.38;;;10.50;77.92
49585;BME280;35491;49.142;9.210;2023-03-20T01:18:34;100142.63;;;10.46;78.18
49585;BME280;35491;49.142;9.210;2023-03-20T01:19:36;100144.31;;;10.47;77.96
49585;BME280;35491;49.142;9.210;2023-03-20T01:20:40;100146.84;;;10.49;78.24
49585;BME280;35491;49.142;9.210;2023-03-20T01:21:41;100148.81;;;10.47;78.31
49585;BME280;35491;49.142;9.210;2023-03-20T01:22:45;100144.72;;;10.42;78.30
49585;BME280;35491;49.142;9.210;2023-03-20T01:23:49;100139.13;;;10.45;77.96
49585;BME280;35491;49.142;9.210;2023-03-20T01:24:52;100143.31;;;10.48;78.11
49585;BME280;35491;49.142;9.210;2023-03-20T01:25:54;100151.78;;;10.43;78.13
49585;BME280;35491;49.142;9.210;2023-03-20T01:26:58;100146.28;;;10.45;78.24
49585;BME280;35491;49.142;9.210;2023-03-20T01:28:03;100145.28;;;10.46;78.06
49585;BME280;35491;49.142;9.210;2023-03-20T01:29:18;100152.75;;;10.42;78.38
49585;BME280;35491;49.142;9.210;2023-03-20T01:30:21;100145.03;;;10.49;77.80
49585;BME280;35491;49.142;9.210;2023-03-20T01:31:25;100137.72;;;10.51;77.92
49585;BME280;35491;49.142;9.210;2023-03-20T01:32:26;100140.81;;;10.47;78.04
49585;BME280;35491;49.142;9.210;2023-03-20T01:33:29;100142.06;;;10.52;77.54
49585;BME280;35491;49.142;9.210;2023-03-20T01:34:31;100149.09;;;10.43;78.02
49585;BME280;35491;49.142;9.210;2023-03-20T01:35:34;100145.28;;;10.46;77.83
49585;BME280;35491;49.142;9.210;2023-03-20T01:36:35;100145.03;;;10.49;77.77
49585;BME280;35491;49.142;9.210;2023-03-20T01:37:39;100138.41;;;10.43;77.96
49585;BME280;35491;49.142;9.210;2023-03-20T01:38:41;100149.50;;;10.49;77.38
49585;BME280;35491;49.142;9.210;2023-03-20T01:39:45;100148.94;;;10.45;77.62
49585;BME280;35491;49.142;9.210;2023-03-20T01:40:47;100146.41;;;10.53;77.55
49585;BME280;35491;49.142;9.210;2023-03-20T01:41:53;100151.47;;;10.56;77.09
49585;BME280;35491;49.142;9.210;2023-03-20T01:42:54;100141.91;;;10.54;77.28
49585;BME280;35491;49.142;9.210;2023-03-20T01:43:58;100143.63;;;10.55;77.38
49585;BME280;35491;49.142;9.210;2023-03-20T01:45:04;100142.91;;;10.53;76.95
49585;BME280;35491;49.142;9.210;2023-03-20T01:46:14;100141.91;;;10.54;77.15
49585;BME280;35491;49.142;9.210;2023-03-20T01:47:18;100146.41;;;10.53;76.87
49585;BME280;35491;49.142;9.210;2023-03-20T08:39:18;100297.81;;;10.93;73.29
49585;BME280;35491;49.142;9.210;2023-03-20T08:40:22;100294.59;;;11.00;73.18
49585;BME280;35491;49.142;9.210;2023-03-20T08:41:28;100297.09;;;11.11;72.39
49585;BME280;35491;49.142;9.210;2023-03-20T08:42:32;100296.00;;;11.14;71.86
49585;BME280;35491;49.142;9.210;2023-03-20T08:43:33;100299.91;;;11.19;71.78
49585;BME280;35491;49.142;9.210;2023-03-20T08:44:39;100295.25;;;11.21;71.79
49585;BME280;35491;49.142;9.210;2023-03-20T08:45:43;100299.34;;;11.16;71.59
49585;BME280;35491;49.142;9.210;2023-03-20T08:48:02;100308.53;;;11.03;71.73
49585;BME280;35491;49.142;9.210;2023-03-20T08:52:05;100308.09;;;10.98;72.34
49585;BME280;35491;49.142;9.210;2023-03-20T08:53:09;100311.19;;;10.93;72.38
49585;BME280;35491;49.142;9.210;2023-03-20T08:54:13;100310.22;;;11.04;72.53
49585;BME280;35491;49.142;9.210;2023-03-20T08:55:27;100311.63;;;10.99;72.11
49585;BME280;35491;49.142;9.210;2023-03-20T08:56:31;100309.09;;;10.97;72.55
49585;BME280;35491;49.142;9.210;2023-03-20T08:59:08;100309.63;;;10.71;73.39
49585;BME280;35491;49.142;9.210;2023-03-20T09:01:16;100316.13;;;10.79;73.63
49585;BME280;35491;49.142;9.210;2023-03-20T09:02:21;100311.06;;;10.75;73.78
49585;BME280;35491;49.142;9.210;2023-03-20T09:03:23;100311.63;;;10.89;73.55
49585;BME280;35491;49.142;9.210;2023-03-20T09:05:49;100308.41;;;10.75;73.30
49585;BME280;35491;49.142;9.210;2023-03-20T09:06:53;100309.50;;;10.73;73.42
49585;BME280;35491;49.142;9.210;2023-03-20T09:07:57;100309.25;;;10.86;73.63
49585;BME280;35491;49.142;9.210;2023-03-20T09:09:03;100305.56;;;10.87;73.01
49585;BME280;35491;49.142;9.210;2023-03-20T09:10:08;100305.88;;;11.03;72.71
49585;BME280;35491;49.142;9.210;2023-03-20T09:11:23;100312.47;;;11.09;72.29
49585;BME280;35491;49.142;9.210;2023-03-20T09:12:27;100309.34;;;11.23;72.08
49585;BME280;35491;49.142;9.210;2023-03-20T09:13:28;100312.72;;;11.16;71.84
49585;BME280;35491;49.142;9.210;2023-03-20T09:14:32;100311.63;;;10.99;71.96
49585;BME280;35491;49.142;9.210;2023-03-20T09:15:36;100313.03;;;10.93;72.29
49585;BME280;35491;49.142;9.210;2023-03-20T09:16:38;100315.84;;;10.91;72.86
49585;BME280;35491;49.142;9.210;2023-03-20T09:19:00;100319.09;;;11.05;71.89
49585;BME280;35491;49.142;9.210;2023-03-20T09:20:12;100317.81;;;10.99;72.08
49585;BME280;35491;49.142;9.210;2023-03-20T09:21:16;100328.53;;;10.99;72.37
49585;BME280;35491;49.142;9.210;2023-03-20T09:22:25;100320.63;;;11.07;72.13
49585;BME280;35491;49.142;9.210;2023-03-20T09:23:30;100315.84;;;11.01;72.00
49585;BME280;35491;49.142;9.210;2023-03-20T09:24:32;100316.13;;;10.98;72.14
49585;BME280;35491;49.142;9.210;2023-03-20T09:25:35;100324.28;;;11.06;71.81
49585;BME280;35491;49.142;9.210;2023-03-20T09:26:39;100321.75;;;11.05;71.77
49585;BME280;35491;49.142;9.210;2023-03-20T09:27:43;100317.97;;;11.17;71.67
49585;BME280;35491;49.142;9.210;2023-03-20T09:28:59;100324.72;;;11.31;71.61
49585;BME280;35491;49.142;9.210;2023-03-20T09:30:04;100316.69;;;11.31;71.23
49585;BME280;35491;49.142;9.210;2023-03-20T09:31:05;100319.06;;;11.24;71.42
49585;BME280;35491;49.142;9.210;2023-03-20T09:32:10;100329.09;;;11.13;71.65
49585;BME280;35491;49.142;9.210;2023-03-20T09:33:13;100323.75;;;11.13;72.03
49585;BME280;35491;49.142;9.210;2023-03-20T09:34:18;100325.97;;;11.27;71.54
49585;BME280;35491;49.142;9.210;2023-03-20T09:35:20;100321.06;;;11.32;71.31
49585;BME280;35491;49.142;9.210;2023-03-20T09:36:24;100319.06;;;11.34;71.23
49585;BME280;35491;49.142;9.210;2023-03-20T09:37:26;100326.53;;;11.41;71.07
49585;BME280;35491;49.142;9.210;2023-03-20T09:38:30;100329.31;;;11.39;70.70
49585;BME280;35491;49.142;9.210;2023-03-20T09:39:34;100330.16;;;11.49;70.67
49585;BME280;35491;49.142;9.210;2023-03-20T09:40:37;100324.13;;;11.47;70.60
49585;BME280;35491;49.142;9.210;2023-03-20T09:41:52;100327.34;;;11.51;70.43
49585;BME280;35491;49.142;9.210;2023-03-20T09:42:57;100325.78;;;11.58;70.12
49585;BME280;35491;49.142;9.210;2023-03-20T09:44:09;100323.25;;;11.47;70.38
49585;BME280;35491;49.142;9.210;2023-03-20T09:45:13;100334.97;;;11.46;70.48
49585;BME280;35491;49.142;9.210;2023-03-20T09:46:23;100329.72;;;11.54;70.29
49585;BME280;35491;49.142;9.210;2023-03-20T09:47:30;100342.13;;;11.65;70.05
49585;BME280;35491;49.142;9.210;2023-03-20T09:48:39;100334.91;;;11.65;69.29
49585;BME280;35491;49.142;9.210;2023-03-20T09:49:44;100335.78;;;11.56;69.24
49585;BME280;35491;49.142;9.210;2023-03-20T09:50:51;100336.94;;;11.53;69.61
49585;BME280;35491;49.142;9.210;2023-03-20T09:51:57;100329.47;;;11.37;69.58
49585;BME280;35491;49.142;9.210;2023-03-20T09:53:00;100333.38;;;11.53;69.65
49585;BME280;35491;49.142;9.210;2023-03-20T09:54:08;100339.13;;;11.68;69.13
49585;BME280;35491;49.142;9.210;2023-03-20T09:55:12;100341.16;;;11.56;69.14
49585;BME280;35491;49.142;9.210;2023-03-20T09:56:22;100334.09;;;11.55;69.35
49585;BME280;35491;49.142;9.210;2023-03-20T09:57:34;100340.00;;;11.59;68.93
49585;BME280;35491;49.142;9.210;2023-03-20T09:58:40;100346.50;;;11.66;69.28
49585;BME280;35491;49.142;9.210;2023-03-20T09:59:45;100336.63;;;11.66;68.77
49585;BME280;35491;49.142;9.210;2023-03-20T10:00:47;100339.75;;;11.52;68.74
49585;BME280;35491;49.142;9.210;2023-03-20T10:03:01;100340.03;;;11.49;68.91
49585;BME280;35491;49.142;9.210;2023-03-20T10:04:06;100340.13;;;11.67;68.55
49585;BME280;35491;49.142;9.210;2023-03-20T10:05:14;100345.03;;;11.71;67.96
49585;BME280;35491;49.142;9.210;2023-03-20T10:06:20;100342.78;;;11.67;68.65
49585;BME280;35491;49.142;9.210;2023-03-20T10:07:33;100340.44;;;11.64;67.34
49585;BME280;35491;49.142;9.210;2023-03-20T10:08:35;100343.66;;;11.58;67.67
49585;BME280;35491;49.142;9.210;2023-03-20T10:09:47;100346.63;;;11.64;67.75
49585;BME280;35491;49.142;9.210;2023-03-20T10:10:49;100344.94;;;11.63;67.44
49585;BME280;35491;49.142;9.210;2023-03-20T10:12:08;100350.16;;;11.55;67.73
49585;BME280;35491;49.142;9.210;2023-03-20T10:13:23;100339.44;;;11.65;67.62
49585;BME280;35491;49.142;9.210;2023-03-20T10:14:32;100343.53;;;11.59;67.72
49585;BME280;35491;49.142;9.210;2023-03-20T10:15:42;100345.94;;;11.52;67.62
49585;BME280;35491;49.142;9.210;2023-03-20T10:16:50;100349.91;;;11.38;67.98
49585;BME280;35491;49.142;9.210;2023-03-20T10:18:01;100349.22;;;11.27;68.25
49585;BME280;35491;49.142;9.210;2023-03-20T10:19:15;100344.56;;;11.38;68.00
49585;BME280;35491;49.142;9.210;2023-03-20T10:20:23;100347.47;;;11.55;67.92
49585;BME280;35491;49.142;9.210;2023-03-20T10:21:29;100344.25;;;11.61;67.91
49585;BME280;35491;49.142;9.210;2023-03-20T10:22:41;100343.38;;;11.70;67.51
49585;BME280;35491;49.142;9.210;2023-03-20T10:23:47;100349.28;;;11.74;66.72
49585;BME280;35491;49.142;9.210;2023-03-20T10:24:53;100348.44;;;11.74;67.35
49585;BME280;35491;49.142;9.210;2023-03-20T10:25:59;100351.56;;;11.59;66.88
49585;BME280;35491;49.142;9.210;2023-03-20T10:27:14;100341.25;;;11.64;67.17
49585;BME280;35491;49.142;9.210;2023-03-20T10:28:27;100348.16;;;11.67;66.93
49585;BME280;35491;49.142;9.210;2023-03-20T10:29:43;100342.56;;;11.50;67.36
49585;BME280;35491;49.142;9.210;2023-03-20T10:30:55;100342.88;;;11.47;67.36
49585;BME280;35491;49.142;9.210;2023-03-20T10:32:01;100342.28;;;11.44;67.93
49585;BME280;35491;49.142;9.210;2023-03-20T10:33:11;100346.66;;;11.45;67.92
49585;BME280;35491;49.142;9.210;2023-03-20T10:34:30;100339.75;;;11.52;67.37
49585;BME280;35491;49.142;9.210;2023-03-20T10:35:38;100332.13;;;11.57;67.32
49585;BME280;35491;49.142;9.210;2023-03-20T10:38:16;100343.06;;;11.74;66.86
49585;BME280;35491;49.142;9.210;2023-03-20T10:39:30;100334.72;;;11.86;66.50
49585;BME280;35491;49.142;9.210;2023-03-20T10:40:37;100336.81;;;11.93;66.59
49585;BME280;35491;49.142;9.210;2023-03-20T10:41:43;100336.09;;;12.00;66.30
49585;BME280;35491;49.142;9.210;2023-03-20T10:42:48;100341.22;;;11.84;66.58
49585;BME280;35491;49.142;9.210;2023-03-20T10:43:56;100339.09;;;11.88;66.87
49585;BME280;35491;49.142;9.210;2023-03-20T10:45:03;100330.06;;;11.89;66.44
49585;BME280;35491;49.142;9.210;2023-03-20T10:46:13;100338.31;;;11.67;67.12
49585;BME280;35491;49.142;9.210;2023-03-20T10:47:19;100339.97;;;11.78;67.16
49585;BME280;35491;49.142;9.210;2023-03-20T10:49:50;100333.22;;;11.64;66.81
49585;BME280;35491;49.142;9.210;2023-03-20T10:50:57;100339.56;;;11.73;66.93
49585;BME280;35491;49.142;9.210;2023-03-20T10:52:02;100335.47;;;11.79;66.89
49585;BME280;35491;49.142;9.210;2023-03-20T10:53:05;100340.66;;;11.90;66.22
49585;BME280;35491;49.142;9.210;2023-03-20T10:54:13;100335.84;;;11.94;65.84
49585;BME280;35491;49.142;9.210;2023-03-20T10:55:21;100341.94;;;11.76;66.29
49585;BME280;35491;49.142;9.210;2023-03-20T10:56:28;100331.78;;;11.80;66.05
49585;BME280;35491;49.142;9.210;2023-03-20T10:57:34;100342.97;;;11.65;66.89
49585;BME280;35491;49.142;9.210;2023-03-20T11:00:15;100335.06;;;11.64;66.97
49585;BME280;35491;49.142;9.210;2023-03-20T11:01:21;100335.19;;;11.62;66.75
49585;BME280;35491;49.142;9.210;2023-03-20T11:02:27;100336.03;;;11.73;66.79
49585;BME280;35491;49.142;9.210;2023-03-20T11:03:29;100334.72;;;11.86;66.33
49585;BME280;35491;49.142;9.210;2023-03-20T11:07:20;100333.13;;;12.13;65.79
49585;BME280;35491;49.142;9.210;2023-03-20T11:08:33;100331.91;;;12.26;65.50
49585;BME280;35491;49.142;9.210;2023-03-20T11:09:38;100326.06;;;12.12;64.55
49585;BME280;35491;49.142;9.210;2023-03-20T11:13:13;100327.09;;;11.92;65.02
49585;BME280;35491;49.142;9.210;2023-03-20T11:14:20;100331.44;;;12.02;64.61
49585;BME280;35491;49.142;9.210;2023-03-20T11:15:30;100328.28;;;12.17;64.35
49585;BME280;35491;49.142;9.210;2023-03-20T11:18:03;100330.31;;;11.95;65.81
49585;BME280;35491;49.142;9.210;2023-03-20T11:19:09;100324.28;;;12.03;65.35
49585;BME280;35491;49.142;9.210;2023-03-20T11:20:37;100330.06;;;11.98;65.65
49585;BME280;35491;49.142;9.210;2023-03-20T11:25:23;100336.41;;;11.88;65.64
49585;BME280;35491;49.142;9.210;2023-03-20T11:29:44;100329.41;;;12.14;65.10
49585;BME280;35491;49.142;9.210;2023-03-20T11:32:26;100332.34;;;12.21;64.77
49585;BME280;35491;49.142;9.210;2023-03-20T12:16:26;100292.84;;;12.87;56.87
49585;BME280;35491;49.142;9.210;2023-03-20T12:17:32;100286.09;;;12.83;56.59
49585;BME280;35491;49.142;9.210;2023-03-20T12:21:47;100283.75;;;13.24;56.66
49585;BME280;35491;49.142;9.210;2023-03-20T12:24:22;100279.13;;;13.35;55.93
49585;BME280;35491;49.142;9.210;2023-03-20T12:25:28;100278.72;;;13.48;55.78
49585;BME280;35491;49.142;9.210;2023-03-20T12:26:35;100271.69;;;13.29;55.90
49585;BME280;35491;49.142;9.210;2023-03-20T12:28:53;100271.75;;;13.37;55.66
49585;BME280;35491;49.142;9.210;2023-03-20T12:30:02;100274.63;;;13.17;55.80
49585;BME280;35491;49.142;9.210;2023-03-20T12:31:17;100261.00;;;13.37;55.78
49585;BME280;35491;49.142;9.210;2023-03-20T12:32:27;100261.63;;;13.49;55.71
49585;BME280;35491;49.142;9.210;2023-03-20T12:33:33;100268.69;;;13.50;55.72
49585;BME280;35491;49.142;9.210;2023-03-20T12:34:41;100268.25;;;13.36;55.58
49585;BME280;35491;49.142;9.210;2023-03-20T12:37:15;100263.25;;;13.23;56.09
49585;BME280;35491;49.142;9.210;2023-03-20T12:38:23;100262.69;;;13.38;56.10
49585;BME280;35491;49.142;9.210;2023-03-20T12:39:27;100265.16;;;13.49;55.37
49585;BME280;35491;49.142;9.210;2023-03-20T12:40:36;100250.53;;;13.44;55.44
49585;BME280;35491;49.142;9.210;2023-03-20T12:41:47;100247.56;;;13.55;55.20
49585;BME280;35491;49.142;9.210;2023-03-20T12:42:54;100255.72;;;13.45;55.13
49585;BME280;35491;49.142;9.210;2023-03-20T12:48:47;100246.72;;;13.54;55.12
49585;BME280;35491;49.142;9.210;2023-03-20T12:49:56;100242.75;;;13.67;54.83
49585;BME280;35491;49.142;9.210;2023-03-20T12:51:05;100247.91;;;13.60;55.15
49585;BME280;35491;49.142;9.210;2023-03-20T12:52:13;100250.25;;;13.55;54.99
49585;BME280;35491;49.142;9.210;2023-03-20T12:55:00;100244.63;;;13.40;54.87
49585;BME280;35491;49.142;9.210;2023-03-20T12:56:15;100239.44;;;13.20;55.20
49585;BME280;35491;49.142;9.210;2023-03-20T13:00:17;100239.78;;;13.25;55.55
49585;BME280;35491;49.142;9.210;2023-03-20T13:01:20;100242.94;;;13.39;55.20
49585;BME280;35491;49.142;9.210;2023-03-20T13:02:29;100237.31;;;13.50;54.90
49585;BME280;35491;49.142;9.210;2023-03-20T13:16:23;100209.66;;;14.17;53.92
49585;BME280;35491;49.142;9.210;2023-03-20T13:17:29;100211.69;;;14.15;53.87
49585;BME280;35491;49.142;9.210;2023-03-20T13:21:25;100202.28;;;14.19;52.92
49585;BME280;35491;49.142;9.210;2023-03-20T13:22:48;100204.84;;;14.21;52.64
49585;BME280;35491;49.142;9.210;2023-03-20T13:23:57;100199.63;;;14.28;52.46
49585;BME280;35491;49.142;9.210;2023-03-20T13:25:09;100203.31;;;14.27;52.39
49585;BME280;35491;49.142;9.210;2023-03-20T13:26:22;100195.91;;;14.29;52.33
49585;BME280;35491;49.142;9.210;2023-03-20T13:27:29;100196.56;;;14.06;52.25
49585;BME280;35491;49.142;9.210;2023-03-20T13:29:40;100191.59;;;13.85;52.74
49585;BME280;35491;49.142;9.210;2023-03-20T13:30:48;100193.69;;;14.08;53.05
49585;BME280;35491;49.142;9.210;2023-03-20T13:32:02;100194.22;;;14.11;52.50
49585;BME280;35491;49.142;9.210;2023-03-20T13:33:22;100189.72;;;14.28;52.69
49585;BME280;35491;49.142;9.210;2023-03-20T13:34:31;100183.66;;;14.34;52.07
49585;BME280;35491;49.142;9.210;2023-03-20T13:35:39;100183.34;;;14.38;52.03
49585;BME280;35491;49.142;9.210;2023-03-20T13:40:43;100174.09;;;14.48;52.06
49585;BME280;35491;49.142;9.210;2023-03-20T13:43:41;100183.69;;;14.59;51.54
49585;BME280;35491;49.142;9.210;2023-03-20T13:46:30;100179.19;;;14.68;51.80
49585;BME280;35491;49.142;9.210;2023-03-20T13:47:39;100176.47;;;14.60;50.89
49585;BME280;35491;49.142;9.210;2023-03-20T13:48:40;100169.03;;;14.45;51.13
49585;BME280;35491;49.142;9.210;2023-03-20T13:49:46;100178.47;;;14.58;51.19
49585;BME280;35491;49.142;9.210;2023-03-20T13:50:53;100166.19;;;14.63;51.30
49585;BME280;35491;49.142;9.210;2023-03-20T13:52:00;100170.41;;;14.49;50.89
49585;BME280;35491;49.142;9.210;2023-03-20T13:53:07;100165.38;;;14.55;51.36
49585;BME280;35491;49.142;9.210;2023-03-20T13:54:14;100169.72;;;14.39;51.09
49585;BME280;35491;49.142;9.210;2023-03-20T13:55:25;100166.19;;;14.47;50.56
49585;BME280;35491;49.142;9.210;2023-03-20T13:56:37;100171.59;;;14.47;49.79
49585;BME280;35491;49.142;9.210;2023-03-20T13:57:44;100169.03;;;14.45;48.47
49585;BME280;35491;49.142;9.210;2023-03-20T13:58:56;100169.91;;;14.54;48.09
49585;BME280;35491;49.142;9.210;2023-03-20T14:00:04;100162.69;;;14.55;48.44
49585;BME280;35491;49.142;9.210;2023-03-20T14:01:10;100161.00;;;14.62;48.37
49585;BME280;35491;49.142;9.210;2023-03-20T14:02:18;100164.19;;;14.65;48.14
49585;BME280;35491;49.142;9.210;2023-03-20T14:03:29;100162.31;;;14.66;48.31
49585;BME280;35491;49.142;9.210;2023-03-20T14:04:35;100158.00;;;14.81;48.63
49585;BME280;35491;49.142;9.210;2023-03-20T14:05:47;100158.50;;;14.77;48.07
49585;BME280;35491;49.142;9.210;2023-03-20T14:06:49;100160.84;;;14.80;47.77
49585;BME280;35491;49.142;9.210;2023-03-20T14:07:54;100162.69;;;14.88;48.14
49585;BME280;35491;49.142;9.210;2023-03-20T14:08:58;100156.97;;;14.74;47.45
49585;BME280;35491;49.142;9.210;2023-03-20T14:11:33;100159.97;;;14.96;48.09
49585;BME280;35491;49.142;9.210;2023-03-20T14:12:39;100147.34;;;15.05;47.64
49585;BME280;35491;49.142;9.210;2023-03-20T14:13:46;100156.59;;;14.94;47.82
49585;BME280;35491;49.142;9.210;2023-03-20T14:14:49;100146.16;;;15.07;48.09
49585;BME280;35491;49.142;9.210;2023-03-20T14:15:55;100149.19;;;15.04;47.73
49585;BME280;35491;49.142;9.210;2023-03-20T14:17:06;100150.56;;;15.00;47.44
49585;BME280;35491;49.142;9.210;2023-03-20T14:18:12;100150.25;;;14.70;47.81
49585;BME280;35491;49.142;9.210;2023-03-20T14:19:22;100151.59;;;14.74;47.65
49585;BME280;35491;49.142;9.210;2023-03-20T14:20:28;100154.78;;;14.86;47.69
49585;BME280;35491;49.142;9.210;2023-03-20T14:21:33;100152.25;;;14.76;47.55
49585;BME280;35491;49.142;9.210;2023-03-20T14:22:37;100153.63;;;14.72;47.99
49585;BME280;35491;49.142;9.210;2023-03-20T14:23:59;100152.44;;;14.58;48.79
49585;BME280;35491;49.142;9.210;2023-03-20T14:25:03;100149.75;;;14.66;48.65
49585;BME280;35491;49.142;9.210;2023-03-20T14:26:13;100148.25;;;14.72;48.50
49585;BME280;35491;49.142;9.210;2023-03-20T14:27:35;100154.25;;;14.66;48.63
49585;BME280;35491;49.142;9.210;2023-03-20T14:28:43;100149.94;;;14.73;48.67
49585;BME280;35491;49.142;9.210;2023-03-20T14:29:48;100152.44;;;14.58;48.30
49585;BME280;35491;49.142;9.210;2023-03-20T14:33:42;100142.84;;;14.89;47.94
49585;BME280;35491;49.142;9.210;2023-03-20T14:34:47;100146.19;;;14.91;47.81
49585;BME280;35491;49.142;9.210;2023-03-20T14:36:09;100153.09;;;14.85;47.81
49585;BME280;35491;49.142;9.210;2023-03-20T14:37:25;100145.53;;;14.80;47.91